sensor_id;sensor_type;location;lat;lon;timestamp;P1;durP1;ratioP1;P2;durP2;ratioP2
27839;SDS011;15207;42.182;24.308;2023-05-14T00:00:40;3.15;;;1.85;;
27839;SDS011;15207;42.182;24.308;2023-05-14T00:03:05;2.65;;;1.80;;
27839;SDS011;15207;42.182;24.308;2023-05-14T00:05:31;2.35;;;1.60;;
27839;SDS011;15207;42.182;24.308;2023-05-14T00:07:56;2.05;;;1.65;;
27839;SDS011;15207;42.182;24.308;2023-05-14T00:10:22;4.10;;;1.98;;
27839;SDS011;15207;42.182;24.308;2023-05-14T00:12:50;2.70;;;2.00;;
27839;SDS011;15207;42.182;24.308;2023-05-14T00:15:15;2.55;;;1.85;;
27839;SDS011;15207;42.182;24.308;2023-05-14T00:17:41;3.35;;;1.80;;
27839;SDS011;15207;42.182;24.308;2023-05-14T00:20:07;2.03;;;1.60;;
27839;SDS011;15207;42.182;24.308;2023-05-14T00:25:11;6.00;;;1.90;;
27839;SDS011;15207;42.182;24.308;2023-05-14T00:27:36;3.00;;;1.60;;
27839;SDS011;15207;42.182;24.308;2023-05-14T00:30:03;3.80;;;1.80;;
27839;SDS011;15207;42.182;24.308;2023-05-14T00:32:31;2.20;;;1.80;;
27839;SDS011;15207;42.182;24.308;2023-05-14T00:34:57;2.00;;;1.80;;
27839;SDS011;15207;42.182;24.308;2023-05-14T00:37:22;2.75;;;1.85;;
27839;SDS011;15207;42.182;24.308;2023-05-14T00:39:48;2.30;;;2.00;;
27839;SDS011;15207;42.182;24.308;2023-05-14T00:42:14;3.45;;;1.90;;
27839;SDS011;15207;42.182;24.308;2023-05-14T00:44:39;3.45;;;1.65;;
27839;SDS011;15207;42.182;24.308;2023-05-14T00:47:05;3.10;;;2.20;;
27839;SDS011;15207;42.182;24.308;2023-05-14T00:49:33;2.88;;;1.92;;
27839;SDS011;15207;42.182;24.308;2023-05-14T00:51:59;3.23;;;2.13;;
27839;SDS011;15207;42.182;24.308;2023-05-14T00:54:25;2.08;;;1.80;;
27839;SDS011;15207;42.182;24.308;2023-05-14T00:56:52;2.50;;;1.70;;
27839;SDS011;15207;42.182;24.308;2023-05-14T00:59:19;4.50;;;2.42;;
27839;SDS011;15207;42.182;24.308;2023-05-14T01:01:44;3.85;;;2.08;;
27839;SDS011;15207;42.182;24.308;2023-05-14T01:04:10;3.55;;;2.10;;
27839;SDS011;15207;42.182;24.308;2023-05-14T01:09:43;3.25;;;2.00;;
27839;SDS011;15207;42.182;24.308;2023-05-14T01:12:32;3.78;;;1.98;;
27839;SDS011;15207;42.182;24.308;2023-05-14T01:15:40;4.00;;;2.50;;
27839;SDS011;15207;42.182;24.308;2023-05-14T01:18:06;4.20;;;2.20;;
27839;SDS011;15207;42.182;24.308;2023-05-14T01:20:34;4.50;;;2.25;;
27839;SDS011;15207;42.182;24.308;2023-05-14T01:23:01;4.22;;;2.30;;
27839;SDS011;15207;42.182;24.308;2023-05-14T01:25:29;3.38;;;2.50;;
27839;SDS011;15207;42.182;24.308;2023-05-14T01:30:36;3.90;;;2.40;;
27839;SDS011;15207;42.182;24.308;2023-05-14T01:33:05;5.80;;;2.15;;
27839;SDS011;15207;42.182;24.308;2023-05-14T01:35:35;3.27;;;2.40;;
27839;SDS011;15207;42.182;24.308;2023-05-14T01:38:02;4.40;;;2.33;;
27839;SDS011;15207;42.182;24.308;2023-05-14T01:42:57;4.95;;;2.70;;
27839;SDS011;15207;42.182;24.308;2023-05-14T01:45:23;3.30;;;2.25;;
27839;SDS011;15207;42.182;24.308;2023-05-14T01:47:49;3.35;;;2.40;;
27839;SDS011;15207;42.182;24.308;2023-05-14T01:50:15;3.60;;;2.30;;
27839;SDS011;15207;42.182;24.308;2023-05-14T01:52:41;3.70;;;2.40;;
27839;SDS011;15207;42.182;24.308;2023-05-14T01:55:06;3.67;;;2.33;;
27839;SDS011;15207;42.182;24.308;2023-05-14T01:57:32;3.15;;;2.20;;
27839;SDS011;15207;42.182;24.308;2023-05-14T01:59:58;3.70;;;2.30;;
27839;SDS011;15207;42.182;24.308;2023-05-14T02:02:25;5.00;;;2.20;;
27839;SDS011;15207;42.182;24.308;2023-05-14T02:04:51;3.73;;;2.30;;
27839;SDS011;15207;42.182;24.308;2023-05-14T02:07:17;2.97;;;1.90;;
27839;SDS011;15207;42.182;24.308;2023-05-14T02:09:42;3.75;;;2.40;;
27839;SDS011;15207;42.182;24.308;2023-05-14T02:12:08;5.30;;;2.60;;
27839;SDS011;15207;42.182;24.308;2023-05-14T02:14:35;5.75;;;2.50;;
27839;SDS011;15207;42.182;24.308;2023-05-14T02:17:00;5.38;;;2.67;;
27839;SDS011;15207;42.182;24.308;2023-05-14T02:19:27;4.35;;;2.45;;
27839;SDS011;15207;42.182;24.308;2023-05-14T02:21:53;16.20;;;2.50;;
27839;SDS011;15207;42.182;24.308;2023-05-14T02:24:19;4.70;;;2.67;;
27839;SDS011;15207;42.182;24.308;2023-05-14T02:26:44;3.30;;;2.40;;
27839;SDS011;15207;42.182;24.308;2023-05-14T02:29:10;3.28;;;2.05;;
27839;SDS011;15207;42.182;24.308;2023-05-14T02:31:36;5.40;;;2.30;;
27839;SDS011;15207;42.182;24.308;2023-05-14T02:34:01;5.70;;;3.10;;
27839;SDS011;15207;42.182;24.308;2023-05-14T02:36:28;6.05;;;2.60;;
27839;SDS011;15207;42.182;24.308;2023-05-14T02:38:53;4.43;;;2.67;;
27839;SDS011;15207;42.182;24.308;2023-05-14T02:41:19;3.45;;;2.15;;
27839;SDS011;15207;42.182;24.308;2023-05-14T02:43:45;5.70;;;2.80;;
27839;SDS011;15207;42.182;24.308;2023-05-14T02:48:36;6.70;;;2.75;;
27839;SDS011;15207;42.182;24.308;2023-05-14T02:51:02;5.30;;;2.50;;
27839;SDS011;15207;42.182;24.308;2023-05-14T02:53:28;4.30;;;2.60;;
27839;SDS011;15207;42.182;24.308;2023-05-14T02:55:53;7.00;;;2.80;;
27839;SDS011;15207;42.182;24.308;2023-05-14T02:58:19;9.45;;;3.05;;
27839;SDS011;15207;42.182;24.308;2023-05-14T03:00:45;5.65;;;3.00;;
27839;SDS011;15207;42.182;24.308;2023-05-14T03:03:10;4.90;;;2.80;;
27839;SDS011;15207;42.182;24.308;2023-05-14T03:05:36;3.15;;;2.55;;
27839;SDS011;15207;42.182;24.308;2023-05-14T03:08:02;4.35;;;2.70;;
27839;SDS011;15207;42.182;24.308;2023-05-14T03:10:27;5.45;;;3.30;;
27839;SDS011;15207;42.182;24.308;2023-05-14T03:12:53;6.45;;;3.50;;
27839;SDS011;15207;42.182;24.308;2023-05-14T03:15:18;5.10;;;3.35;;
27839;SDS011;15207;42.182;24.308;2023-05-14T03:17:44;4.45;;;3.03;;
27839;SDS011;15207;42.182;24.308;2023-05-14T03:20:10;4.55;;;2.90;;
27839;SDS011;15207;42.182;24.308;2023-05-14T03:22:36;6.78;;;3.22;;
27839;SDS011;15207;42.182;24.308;2023-05-14T03:25:02;5.30;;;3.40;;
27839;SDS011;15207;42.182;24.308;2023-05-14T03:27:28;5.33;;;3.57;;
27839;SDS011;15207;42.182;24.308;2023-05-14T03:29:53;6.15;;;3.60;;
27839;SDS011;15207;42.182;24.308;2023-05-14T03:32:19;6.20;;;3.75;;
27839;SDS011;15207;42.182;24.308;2023-05-14T03:34:45;7.75;;;4.00;;
27839;SDS011;15207;42.182;24.308;2023-05-14T03:37:10;5.75;;;3.75;;
27839;SDS011;15207;42.182;24.308;2023-05-14T03:39:36;6.40;;;3.80;;
27839;SDS011;15207;42.182;24.308;2023-05-14T03:42:01;5.60;;;3.83;;
27839;SDS011;15207;42.182;24.308;2023-05-14T03:44:27;10.00;;;4.10;;
27839;SDS011;15207;42.182;24.308;2023-05-14T03:46:53;6.60;;;4.15;;
27839;SDS011;15207;42.182;24.308;2023-05-14T03:49:18;7.30;;;4.25;;
27839;SDS011;15207;42.182;24.308;2023-05-14T03:51:44;6.30;;;4.50;;
27839;SDS011;15207;42.182;24.308;2023-05-14T03:54:09;5.28;;;4.00;;
27839;SDS011;15207;42.182;24.308;2023-05-14T03:56:35;5.60;;;4.00;;
27839;SDS011;15207;42.182;24.308;2023-05-14T03:59:01;7.77;;;4.77;;
27839;SDS011;15207;42.182;24.308;2023-05-14T04:01:26;7.00;;;4.30;;
27839;SDS011;15207;42.182;24.308;2023-05-14T04:03:52;7.15;;;4.45;;
27839;SDS011;15207;42.182;24.308;2023-05-14T04:06:17;6.97;;;4.43;;
27839;SDS011;15207;42.182;24.308;2023-05-14T04:08:43;7.15;;;4.60;;
27839;SDS011;15207;42.182;24.308;2023-05-14T04:11:09;6.05;;;4.20;;
27839;SDS011;15207;42.182;24.308;2023-05-14T04:13:34;7.30;;;4.80;;
27839;SDS011;15207;42.182;24.308;2023-05-14T04:16:00;10.43;;;5.35;;
27839;SDS011;15207;42.182;24.308;2023-05-14T04:18:26;8.07;;;4.78;;
27839;SDS011;15207;42.182;24.308;2023-05-14T04:20:51;9.75;;;5.03;;
27839;SDS011;15207;42.182;24.308;2023-05-14T04:23:16;6.70;;;5.00;;
27839;SDS011;15207;42.182;24.308;2023-05-14T04:25:42;11.10;;;4.55;;
27839;SDS011;15207;42.182;24.308;2023-05-14T04:28:07;6.40;;;4.55;;
27839;SDS011;15207;42.182;24.308;2023-05-14T04:30:33;13.60;;;5.00;;
27839;SDS011;15207;42.182;24.308;2023-05-14T04:32:59;6.70;;;4.13;;
27839;SDS011;15207;42.182;24.308;2023-05-14T04:35:24;7.03;;;4.40;;
27839;SDS011;15207;42.182;24.308;2023-05-14T04:37:50;6.65;;;4.35;;
27839;SDS011;15207;42.182;24.308;2023-05-14T04:40:15;12.27;;;6.53;;
27839;SDS011;15207;42.182;24.308;2023-05-14T04:42:41;11.50;;;6.53;;
27839;SDS011;15207;42.182;24.308;2023-05-14T04:45:08;6.70;;;5.00;;
27839;SDS011;15207;42.182;24.308;2023-05-14T04:47:34;6.65;;;4.60;;
27839;SDS011;15207;42.182;24.308;2023-05-14T04:49:59;8.30;;;5.00;;
27839;SDS011;15207;42.182;24.308;2023-05-14T04:52:25;8.15;;;4.18;;
27839;SDS011;15207;42.182;24.308;2023-05-14T04:54:51;9.10;;;5.00;;
27839;SDS011;15207;42.182;24.308;2023-05-14T04:57:16;8.60;;;5.05;;
27839;SDS011;15207;42.182;24.308;2023-05-14T05:09:44;11.30;;;5.30;;
27839;SDS011;15207;42.182;24.308;2023-05-14T05:12:10;7.25;;;4.85;;
27839;SDS011;15207;42.182;24.308;2023-05-14T05:21:19;8.90;;;4.88;;
27839;SDS011;15207;42.182;24.308;2023-05-14T05:23:45;6.60;;;4.57;;
27839;SDS011;15207;42.182;24.308;2023-05-14T05:26:10;5.53;;;4.43;;
27839;SDS011;15207;42.182;24.308;2023-05-14T05:28:36;6.50;;;4.38;;
27839;SDS011;15207;42.182;24.308;2023-05-14T05:31:02;13.20;;;5.40;;
27839;SDS011;15207;42.182;24.308;2023-05-14T05:33:27;6.65;;;4.55;;
27839;SDS011;15207;42.182;24.308;2023-05-14T05:35:53;8.50;;;5.10;;
27839;SDS011;15207;42.182;24.308;2023-05-14T05:38:20;7.85;;;4.60;;
27839;SDS011;15207;42.182;24.308;2023-05-14T05:44:09;6.55;;;4.10;;
27839;SDS011;15207;42.182;24.308;2023-05-14T05:46:35;7.35;;;5.03;;
27839;SDS011;15207;42.182;24.308;2023-05-14T05:49:01;10.20;;;5.10;;
27839;SDS011;15207;42.182;24.308;2023-05-14T05:51:27;7.40;;;4.80;;
27839;SDS011;15207;42.182;24.308;2023-05-14T05:53:53;7.40;;;4.40;;
27839;SDS011;15207;42.182;24.308;2023-05-14T05:56:18;7.05;;;4.55;;
27839;SDS011;15207;42.182;24.308;2023-05-14T05:58:45;7.90;;;5.00;;
27839;SDS011;15207;42.182;24.308;2023-05-14T06:01:11;13.10;;;5.30;;
27839;SDS011;15207;42.182;24.308;2023-05-14T06:03:36;6.88;;;5.15;;
27839;SDS011;15207;42.182;24.308;2023-05-14T06:06:02;6.90;;;5.00;;
27839;SDS011;15207;42.182;24.308;2023-05-14T06:08:28;8.77;;;5.03;;
27839;SDS011;15207;42.182;24.308;2023-05-14T06:10:53;6.32;;;4.63;;
27839;SDS011;15207;42.182;24.308;2023-05-14T06:13:19;7.20;;;4.78;;
27839;SDS011;15207;42.182;24.308;2023-05-14T06:15:45;6.55;;;4.75;;
27839;SDS011;15207;42.182;24.308;2023-05-14T06:18:11;10.30;;;5.15;;
27839;SDS011;15207;42.182;24.308;2023-05-14T06:20:37;8.40;;;5.00;;
27839;SDS011;15207;42.182;24.308;2023-05-14T06:23:03;7.85;;;5.35;;
27839;SDS011;15207;42.182;24.308;2023-05-14T06:28:51;13.05;;;6.20;;
27839;SDS011;15207;42.182;24.308;2023-05-14T06:31:17;8.55;;;5.50;;
27839;SDS011;15207;42.182;24.308;2023-05-14T06:50:32;8.82;;;5.82;;
27839;SDS011;15207;42.182;24.308;2023-05-14T06:52:58;10.63;;;5.33;;
27839;SDS011;15207;42.182;24.308;2023-05-14T06:55:24;8.60;;;5.90;;
27839;SDS011;15207;42.182;24.308;2023-05-14T06:57:50;8.38;;;5.60;;
27839;SDS011;15207;42.182;24.308;2023-05-14T07:00:16;9.30;;;5.77;;
27839;SDS011;15207;42.182;24.308;2023-05-14T07:02:43;10.00;;;5.40;;
27839;SDS011;15207;42.182;24.308;2023-05-14T07:05:09;8.50;;;6.35;;
27839;SDS011;15207;42.182;24.308;2023-05-14T07:07:36;10.30;;;5.80;;
27839;SDS011;15207;42.182;24.308;2023-05-14T07:10:02;8.30;;;5.25;;
27839;SDS011;15207;42.182;24.308;2023-05-14T07:12:28;7.85;;;5.68;;
27839;SDS011;15207;42.182;24.308;2023-05-14T07:14:54;8.00;;;5.75;;
27839;SDS011;15207;42.182;24.308;2023-05-14T07:17:21;11.00;;;6.00;;
27839;SDS011;15207;42.182;24.308;2023-05-14T07:19:46;8.63;;;6.03;;
27839;SDS011;15207;42.182;24.308;2023-05-14T07:22:12;11.15;;;5.65;;
27839;SDS011;15207;42.182;24.308;2023-05-14T07:24:37;10.43;;;6.38;;
27839;SDS011;15207;42.182;24.308;2023-05-14T07:27:04;8.75;;;5.97;;
27839;SDS011;15207;42.182;24.308;2023-05-14T07:29:31;9.90;;;6.43;;
27839;SDS011;15207;42.182;24.308;2023-05-14T07:31:59;9.00;;;6.30;;
27839;SDS011;15207;42.182;24.308;2023-05-14T07:34:26;11.00;;;6.20;;
27839;SDS011;15207;42.182;24.308;2023-05-14T07:36:52;11.10;;;7.10;;
27839;SDS011;15207;42.182;24.308;2023-05-14T07:39:18;13.18;;;6.55;;
27839;SDS011;15207;42.182;24.308;2023-05-14T07:41:44;12.40;;;6.30;;
27839;SDS011;15207;42.182;24.308;2023-05-14T07:44:10;10.55;;;6.90;;
27839;SDS011;15207;42.182;24.308;2023-05-14T07:46:36;9.60;;;6.40;;
27839;SDS011;15207;42.182;24.308;2023-05-14T07:49:02;8.45;;;5.15;;
27839;SDS011;15207;42.182;24.308;2023-05-14T07:51:27;7.72;;;5.88;;
27839;SDS011;15207;42.182;24.308;2023-05-14T07:53:54;9.13;;;5.60;;
27839;SDS011;15207;42.182;24.308;2023-05-14T07:56:23;8.60;;;6.03;;
27839;SDS011;15207;42.182;24.308;2023-05-14T07:58:50;12.87;;;6.83;;
27839;SDS011;15207;42.182;24.308;2023-05-14T08:01:16;11.05;;;6.80;;
27839;SDS011;15207;42.182;24.308;2023-05-14T08:03:42;9.77;;;6.55;;
27839;SDS011;15207;42.182;24.308;2023-05-14T08:06:08;8.55;;;6.47;;
27839;SDS011;15207;42.182;24.308;2023-05-14T08:08:34;10.40;;;6.80;;
27839;SDS011;15207;42.182;24.308;2023-05-14T08:11:01;8.45;;;6.35;;
27839;SDS011;15207;42.182;24.308;2023-05-14T08:13:29;10.60;;;6.70;;
27839;SDS011;15207;42.182;24.308;2023-05-14T08:15:55;9.55;;;6.55;;
27839;SDS011;15207;42.182;24.308;2023-05-14T08:18:21;9.65;;;6.05;;
27839;SDS011;15207;42.182;24.308;2023-05-14T08:20:47;8.15;;;5.75;;
27839;SDS011;15207;42.182;24.308;2023-05-14T08:23:13;9.75;;;6.22;;
27839;SDS011;15207;42.182;24.308;2023-05-14T08:25:39;9.30;;;6.95;;
27839;SDS011;15207;42.182;24.308;2023-05-14T08:28:06;12.70;;;6.97;;
27839;SDS011;15207;42.182;24.308;2023-05-14T08:30:33;17.05;;;7.20;;
27839;SDS011;15207;42.182;24.308;2023-05-14T08:33:00;11.15;;;7.60;;
27839;SDS011;15207;42.182;24.308;2023-05-14T08:35:26;12.77;;;7.80;;
27839;SDS011;15207;42.182;24.308;2023-05-14T08:37:52;12.50;;;7.70;;
27839;SDS011;15207;42.182;24.308;2023-05-14T08:40:18;14.75;;;7.50;;
27839;SDS011;15207;42.182;24.308;2023-05-14T08:42:45;16.40;;;7.60;;
27839;SDS011;15207;42.182;24.308;2023-05-14T08:45:16;15.30;;;8.10;;
27839;SDS011;15207;42.182;24.308;2023-05-14T08:47:48;11.23;;;7.45;;
27839;SDS011;15207;42.182;24.308;2023-05-14T08:50:15;14.00;;;7.90;;
27839;SDS011;15207;42.182;24.308;2023-05-14T08:52:44;14.13;;;7.63;;
27839;SDS011;15207;42.182;24.308;2023-05-14T08:55:11;16.60;;;8.75;;
27839;SDS011;15207;42.182;24.308;2023-05-14T08:57:37;15.40;;;7.90;;
27839;SDS011;15207;42.182;24.308;2023-05-14T09:00:05;12.05;;;8.13;;
27839;SDS011;15207;42.182;24.308;2023-05-14T09:02:43;9.53;;;6.80;;
27839;SDS011;15207;42.182;24.308;2023-05-14T09:05:11;12.45;;;8.70;;
27839;SDS011;15207;42.182;24.308;2023-05-14T09:07:40;13.55;;;8.00;;
27839;SDS011;15207;42.182;24.308;2023-05-14T09:10:06;11.20;;;7.20;;
27839;SDS011;15207;42.182;24.308;2023-05-14T09:12:34;11.60;;;7.90;;
27839;SDS011;15207;42.182;24.308;2023-05-14T09:15:00;14.97;;;7.67;;
27839;SDS011;15207;42.182;24.308;2023-05-14T09:17:28;14.10;;;7.70;;
27839;SDS011;15207;42.182;24.308;2023-05-14T09:19:54;10.90;;;7.95;;
27839;SDS011;15207;42.182;24.308;2023-05-14T09:22:21;16.55;;;8.80;;
27839;SDS011;15207;42.182;24.308;2023-05-14T09:25:08;14.60;;;8.80;;
27839;SDS011;15207;42.182;24.308;2023-05-14T09:27:36;13.30;;;8.00;;
27839;SDS011;15207;42.182;24.308;2023-05-14T09:30:12;15.93;;;7.80;;
27839;SDS011;15207;42.182;24.308;2023-05-14T09:32:40;12.37;;;7.53;;
27839;SDS011;15207;42.182;24.308;2023-05-14T09:35:12;15.60;;;8.10;;
27839;SDS011;15207;42.182;24.308;2023-05-14T09:37:44;12.95;;;8.32;;
27839;SDS011;15207;42.182;24.308;2023-05-14T09:40:22;13.52;;;7.97;;
27839;SDS011;15207;42.182;24.308;2023-05-14T09:42:48;13.52;;;8.20;;
27839;SDS011;15207;42.182;24.308;2023-05-14T09:45:14;11.95;;;8.30;;
27839;SDS011;15207;42.182;24.308;2023-05-14T09:47:41;13.00;;;8.65;;
27839;SDS011;15207;42.182;24.308;2023-05-14T09:50:09;16.05;;;8.05;;
27839;SDS011;15207;42.182;24.308;2023-05-14T09:52:36;14.70;;;8.48;;
27839;SDS011;15207;42.182;24.308;2023-05-14T09:55:03;15.20;;;9.35;;
27839;SDS011;15207;42.182;24.308;2023-05-14T09:57:30;12.63;;;8.25;;
27839;SDS011;15207;42.182;24.308;2023-05-14T09:59:56;14.00;;;8.50;;
27839;SDS011;15207;42.182;24.308;2023-05-14T10:04:53;14.70;;;8.30;;
27839;SDS011;15207;42.182;24.308;2023-05-14T10:09:57;16.90;;;8.80;;
27839;SDS011;15207;42.182;24.308;2023-05-14T10:12:28;15.05;;;9.30;;
27839;SDS011;15207;42.182;24.308;2023-05-14T10:15:02;14.30;;;9.30;;
27839;SDS011;15207;42.182;24.308;2023-05-14T10:17:34;12.70;;;8.23;;
27839;SDS011;15207;42.182;24.308;2023-05-14T10:20:03;11.25;;;8.00;;
27839;SDS011;15207;42.182;24.308;2023-05-14T10:22:33;12.35;;;7.95;;
27839;SDS011;15207;42.182;24.308;2023-05-14T10:25:00;13.75;;;8.40;;
27839;SDS011;15207;42.182;24.308;2023-05-14T10:27:29;13.40;;;8.10;;
27839;SDS011;15207;42.182;24.308;2023-05-14T10:29:56;14.70;;;7.90;;
27839;SDS011;15207;42.182;24.308;2023-05-14T10:32:23;16.83;;;9.50;;
27839;SDS011;15207;42.182;24.308;2023-05-14T10:34:52;13.77;;;9.45;;
27839;SDS011;15207;42.182;24.308;2023-05-14T10:37:22;13.73;;;8.87;;
27839;SDS011;15207;42.182;24.308;2023-05-14T10:39:58;15.90;;;8.60;;
27839;SDS011;15207;42.182;24.308;2023-05-14T10:42:34;13.40;;;8.77;;
27839;SDS011;15207;42.182;24.308;2023-05-14T10:45:10;12.60;;;8.00;;
27839;SDS011;15207;42.182;24.308;2023-05-14T10:47:39;13.77;;;7.35;;
27839;SDS011;15207;42.182;24.308;2023-05-14T10:50:09;15.05;;;7.80;;
27839;SDS011;15207;42.182;24.308;2023-05-14T10:52:37;16.60;;;8.30;;
27839;SDS011;15207;42.182;24.308;2023-05-14T10:55:11;13.80;;;8.82;;
27839;SDS011;15207;42.182;24.308;2023-05-14T10:57:41;12.88;;;8.20;;
27839;SDS011;15207;42.182;24.308;2023-05-14T11:00:09;13.00;;;8.60;;
27839;SDS011;15207;42.182;24.308;2023-05-14T11:02:38;19.30;;;9.80;;
27839;SDS011;15207;42.182;24.308;2023-05-14T11:05:06;12.73;;;8.88;;
27839;SDS011;15207;42.182;24.308;2023-05-14T11:07:41;11.35;;;7.65;;
27839;SDS011;15207;42.182;24.308;2023-05-14T11:10:12;16.33;;;8.63;;
27839;SDS011;15207;42.182;24.308;2023-05-14T11:12:44;14.30;;;9.35;;
27839;SDS011;15207;42.182;24.308;2023-05-14T11:15:12;13.85;;;8.50;;
27839;SDS011;15207;42.182;24.308;2023-05-14T11:17:40;13.25;;;9.45;;
27839;SDS011;15207;42.182;24.308;2023-05-14T11:20:08;12.70;;;9.20;;
27839;SDS011;15207;42.182;24.308;2023-05-14T11:22:35;14.50;;;9.30;;
27839;SDS011;15207;42.182;24.308;2023-05-14T11:25:02;12.90;;;8.35;;
27839;SDS011;15207;42.182;24.308;2023-05-14T11:27:29;12.30;;;8.48;;
27839;SDS011;15207;42.182;24.308;2023-05-14T11:29:55;14.30;;;8.80;;
27839;SDS011;15207;42.182;24.308;2023-05-14T11:32:22;13.30;;;8.55;;
27839;SDS011;15207;42.182;24.308;2023-05-14T11:34:49;14.20;;;9.13;;
27839;SDS011;15207;42.182;24.308;2023-05-14T11:37:15;15.75;;;10.05;;
27839;SDS011;15207;42.182;24.308;2023-05-14T11:39:48;12.15;;;8.55;;
27839;SDS011;15207;42.182;24.308;2023-05-14T11:42:20;14.70;;;9.30;;
27839;SDS011;15207;42.182;24.308;2023-05-14T11:44:48;14.27;;;8.30;;
27839;SDS011;15207;42.182;24.308;2023-05-14T11:47:16;11.40;;;8.00;;
27839;SDS011;15207;42.182;24.308;2023-05-14T11:49:43;11.65;;;8.15;;
27839;SDS011;15207;42.182;24.308;2023-05-14T11:52:10;11.50;;;7.85;;
27839;SDS011;15207;42.182;24.308;2023-05-14T11:54:38;13.00;;;8.52;;
27839;SDS011;15207;42.182;24.308;2023-05-14T11:57:11;13.55;;;8.75;;
27839;SDS011;15207;42.182;24.308;2023-05-14T11:59:42;13.15;;;7.80;;
27839;SDS011;15207;42.182;24.308;2023-05-14T12:02:11;12.25;;;7.20;;
27839;SDS011;15207;42.182;24.308;2023-05-14T12:04:38;11.30;;;8.00;;
27839;SDS011;15207;42.182;24.308;2023-05-14T12:07:11;13.70;;;8.50;;
27839;SDS011;15207;42.182;24.308;2023-05-14T12:09:40;14.80;;;8.85;;
27839;SDS011;15207;42.182;24.308;2023-05-14T12:12:07;14.70;;;9.60;;
27839;SDS011;15207;42.182;24.308;2023-05-14T12:17:10;14.10;;;8.80;;
27839;SDS011;15207;42.182;24.308;2023-05-14T12:19:47;12.30;;;8.10;;
27839;SDS011;15207;42.182;24.308;2023-05-14T12:22:15;12.30;;;8.35;;
27839;SDS011;15207;42.182;24.308;2023-05-14T12:24:43;14.20;;;8.30;;
27839;SDS011;15207;42.182;24.308;2023-05-14T12:27:25;14.80;;;8.90;;
27839;SDS011;15207;42.182;24.308;2023-05-14T12:29:58;12.40;;;8.80;;
27839;SDS011;15207;42.182;24.308;2023-05-14T12:32:31;15.20;;;9.30;;
27839;SDS011;15207;42.182;24.308;2023-05-14T12:34:58;15.27;;;9.43;;
27839;SDS011;15207;42.182;24.308;2023-05-14T12:37:25;14.20;;;9.90;;
27839;SDS011;15207;42.182;24.308;2023-05-14T12:39:51;15.05;;;9.05;;
27839;SDS011;15207;42.182;24.308;2023-05-14T12:42:17;13.18;;;9.27;;
27839;SDS011;15207;42.182;24.308;2023-05-14T12:44:43;14.80;;;10.40;;
27839;SDS011;15207;42.182;24.308;2023-05-14T12:47:08;15.80;;;10.60;;
27839;SDS011;15207;42.182;24.308;2023-05-14T12:49:34;14.20;;;9.70;;
27839;SDS011;15207;42.182;24.308;2023-05-14T12:52:00;13.45;;;8.75;;
27839;SDS011;15207;42.182;24.308;2023-05-14T12:54:26;14.65;;;9.10;;
27839;SDS011;15207;42.182;24.308;2023-05-14T12:56:51;15.45;;;9.35;;
27839;SDS011;15207;42.182;24.308;2023-05-14T12:59:17;14.80;;;9.70;;
27839;SDS011;15207;42.182;24.308;2023-05-14T13:01:43;16.05;;;10.85;;
27839;SDS011;15207;42.182;24.308;2023-05-14T13:04:09;14.25;;;10.20;;
27839;SDS011;15207;42.182;24.308;2023-05-14T13:06:38;18.90;;;10.60;;
27839;SDS011;15207;42.182;24.308;2023-05-14T13:09:04;17.45;;;10.60;;
27839;SDS011;15207;42.182;24.308;2023-05-14T13:11:30;14.02;;;10.13;;
27839;SDS011;15207;42.182;24.308;2023-05-14T13:13:57;12.70;;;9.60;;
27839;SDS011;15207;42.182;24.308;2023-05-14T13:16:24;14.95;;;10.65;;
27839;SDS011;15207;42.182;24.308;2023-05-14T13:21:16;15.50;;;11.10;;
27839;SDS011;15207;42.182;24.308;2023-05-14T13:23:41;17.40;;;11.15;;
27839;SDS011;15207;42.182;24.308;2023-05-14T13:26:07;14.95;;;9.85;;
27839;SDS011;15207;42.182;24.308;2023-05-14T13:28:33;16.33;;;10.70;;
27839;SDS011;15207;42.182;24.308;2023-05-14T13:31:03;16.70;;;9.63;;
27839;SDS011;15207;42.182;24.308;2023-05-14T13:36:06;14.80;;;9.75;;
27839;SDS011;15207;42.182;24.308;2023-05-14T13:38:34;17.70;;;11.30;;
27839;SDS011;15207;42.182;24.308;2023-05-14T13:40:59;17.05;;;11.35;;
27839;SDS011;15207;42.182;24.308;2023-05-14T13:43:31;17.30;;;10.40;;
27839;SDS011;15207;42.182;24.308;2023-05-14T13:48:25;20.20;;;11.90;;
27839;SDS011;15207;42.182;24.308;2023-05-14T13:50:51;18.70;;;12.40;;
27839;SDS011;15207;42.182;24.308;2023-05-14T13:53:20;20.00;;;13.00;;
27839;SDS011;15207;42.182;24.308;2023-05-14T13:58:13;17.98;;;10.88;;
27839;SDS011;15207;42.182;24.308;2023-05-14T14:00:38;19.30;;;11.90;;
27839;SDS011;15207;42.182;24.308;2023-05-14T14:03:05;15.60;;;10.90;;
27839;SDS011;15207;42.182;24.308;2023-05-14T14:05:32;18.33;;;11.60;;
27839;SDS011;15207;42.182;24.308;2023-05-14T14:07:58;20.75;;;12.07;;
27839;SDS011;15207;42.182;24.308;2023-05-14T14:12:50;19.85;;;12.25;;
27839;SDS011;15207;42.182;24.308;2023-05-14T14:15:16;18.75;;;11.70;;
27839;SDS011;15207;42.182;24.308;2023-05-14T14:17:41;19.80;;;11.80;;
27839;SDS011;15207;42.182;24.308;2023-05-14T14:20:07;18.07;;;12.17;;
27839;SDS011;15207;42.182;24.308;2023-05-14T14:22:33;17.17;;;11.80;;
27839;SDS011;15207;42.182;24.308;2023-05-14T14:24:59;16.00;;;11.20;;
27839;SDS011;15207;42.182;24.308;2023-05-14T14:27:25;17.33;;;11.37;;
27839;SDS011;15207;42.182;24.308;2023-05-14T14:29:51;17.70;;;11.00;;
27839;SDS011;15207;42.182;24.308;2023-05-14T14:32:17;22.90;;;12.80;;
27839;SDS011;15207;42.182;24.308;2023-05-14T14:34:42;20.20;;;11.60;;
27839;SDS011;15207;42.182;24.308;2023-05-14T14:37:08;18.05;;;11.30;;
27839;SDS011;15207;42.182;24.308;2023-05-14T14:39:33;19.30;;;11.30;;
27839;SDS011;15207;42.182;24.308;2023-05-14T14:41:59;20.90;;;12.30;;
27839;SDS011;15207;42.182;24.308;2023-05-14T14:44:25;19.08;;;12.65;;
27839;SDS011;15207;42.182;24.308;2023-05-14T14:46:50;16.70;;;11.50;;
27839;SDS011;15207;42.182;24.308;2023-05-14T14:49:18;23.15;;;12.35;;
27839;SDS011;15207;42.182;24.308;2023-05-14T14:51:47;19.30;;;12.20;;
27839;SDS011;15207;42.182;24.308;2023-05-14T14:54:13;26.75;;;14.07;;
27839;SDS011;15207;42.182;24.308;2023-05-14T14:56:39;20.80;;;12.90;;
27839;SDS011;15207;42.182;24.308;2023-05-14T14:59:07;19.23;;;13.40;;
27839;SDS011;15207;42.182;24.308;2023-05-14T15:01:32;21.40;;;13.40;;
27839;SDS011;15207;42.182;24.308;2023-05-14T15:03:59;20.30;;;13.20;;
27839;SDS011;15207;42.182;24.308;2023-05-14T15:06:25;21.90;;;13.45;;
27839;SDS011;15207;42.182;24.308;2023-05-14T15:08:50;25.15;;;14.45;;
27839;SDS011;15207;42.182;24.308;2023-05-14T15:11:16;21.70;;;13.30;;
27839;SDS011;15207;42.182;24.308;2023-05-14T15:13:42;24.15;;;13.80;;
27839;SDS011;15207;42.182;24.308;2023-05-14T15:16:08;22.50;;;13.30;;
27839;SDS011;15207;42.182;24.308;2023-05-14T15:18:33;21.50;;;13.40;;
27839;SDS011;15207;42.182;24.308;2023-05-14T15:20:59;25.85;;;13.90;;
27839;SDS011;15207;42.182;24.308;2023-05-14T15:25:51;24.35;;;14.13;;
27839;SDS011;15207;42.182;24.308;2023-05-14T15:28:16;27.45;;;15.15;;
27839;SDS011;15207;42.182;24.308;2023-05-14T15:30:42;23.08;;;14.00;;
27839;SDS011;15207;42.182;24.308;2023-05-14T15:33:09;23.50;;;13.10;;
27839;SDS011;15207;42.182;24.308;2023-05-14T15:35:35;26.05;;;15.07;;
27839;SDS011;15207;42.182;24.308;2023-05-14T15:38:02;25.25;;;15.10;;
27839;SDS011;15207;42.182;24.308;2023-05-14T15:40:28;27.43;;;15.50;;